< < Back
Terminal Aerodrome Forecast


Current Version              Previous Versions:   1  2  3  4  5  6  7  8  9  

Terminal Aerodrome Forecast

396
FTUS42 KFFC 270521
TAFATL
TAF
KATL 270521Z 2706/2812 35010KT P6SM FEW020 SCT200
     FM271200 35008KT P6SM SCT025 SCT200
     FM271500 35012KT P6SM SCT045 SCT200
     FM280000 34008KT P6SM BKN200=



Latest METAR

333
SAUS70 KWBC 270700 RRA
MTRATL
METAR KATL 270652Z 31007KT 10SM FEW020 SCT250 12/09 A2979 RMK AO2 SLP081
T01220089


USA.gov is the U.S. government's official web portal to all federal, state and local government web resources and services.